Time;durP1;ratioP1;P1;durP2;ratioP2;P2;SDS_P1;SDS_P2;PMS_P1;PMS_P2;Temp;Humidity;BMP_temperature;BMP_pressure;BME280_temperature;BME280_humidity;BME280_pressure;Samples;Min_cycle;Max_cycle;Signal;HPM_P1;HPM_P2
2022/11/11 00:01:15;;;;;;;0.40;0.40;;;11.80;99.90;;;;;;5048045;28;20728;-81
2022/11/11 00:03:41;;;;;;;0.70;0.70;;;11.90;99.90;;;;;;5016254;28;20079;-83
2022/11/11 00:06:15;;;;;;;0.70;0.70;;;11.80;99.90;;;;;;5036746;28;20102;-83
2022/11/11 00:08:41;;;;;;;0.85;0.85;;;11.80;99.90;;;;;;5035750;28;21308;-81
2022/11/11 00:11:10;;;;;;;0.75;0.57;;;11.90;99.90;;;;;;5032086;28;20164;-82
2022/11/11 00:13:37;;;;;;;0.60;0.60;;;11.80;99.90;;;;;;5039206;28;20418;-83
2022/11/11 00:16:17;;;;;;;1.38;0.77;;;11.70;99.90;;;;;;5042217;28;20486;-83
2022/11/11 00:26:49;;;;;;;0.45;0.45;;;11.70;99.90;;;;;;5021555;28;20048;-83
2022/11/11 00:29:14;;;;;;;0.45;0.45;;;11.70;99.90;;;;;;5036367;28;20458;-82
2022/11/11 00:32:21;;;;;;;3.13;2.92;;;11.70;99.90;;;;;;5045410;28;20063;-81
2022/11/11 00:34:26;;;;;;;0.50;0.50;;;11.70;99.90;;;;;;5039380;28;20420;-81
2022/11/11 00:36:51;;;;;;;0.82;0.82;;;11.70;99.90;;;;;;5002478;28;20056;-82
2022/11/11 00:39:17;;;;;;;0.52;0.52;;;11.80;99.90;;;;;;5036256;28;20064;-81
2022/11/11 00:41:43;;;;;;;0.85;0.85;;;11.70;99.90;;;;;;5034518;28;20041;-82
2022/11/11 00:44:08;;;;;;;1.83;0.73;;;11.70;99.90;;;;;;5037042;28;20045;-81
2022/11/11 00:52:02;;;;;;;1.25;1.15;;;11.70;99.90;;;;;;5032089;28;20658;-82
2022/11/11 00:54:28;;;;;;;0.43;0.43;;;11.70;99.90;;;;;;4998881;28;20041;-82
2022/11/11 00:56:54;;;;;;;0.50;0.50;;;11.70;99.90;;;;;;5034233;28;20051;-82
2022/11/11 00:59:19;;;;;;;0.60;0.60;;;11.70;99.90;;;;;;5016083;28;20057;-81
2022/11/11 01:01:45;;;;;;;0.75;0.70;;;11.70;99.90;;;;;;5014802;28;20055;-80
2022/11/11 01:04:11;;;;;;;0.82;0.82;;;11.70;99.90;;;;;;5036884;28;20040;-82
2022/11/11 01:06:36;;;;;;;0.95;0.93;;;11.70;99.90;;;;;;5030808;28;20052;-82
2022/11/11 01:09:06;;;;;;;1.20;1.10;;;11.70;99.90;;;;;;5028882;28;20497;-82
2022/11/11 01:11:32;;;;;;;2.65;0.65;;;11.70;99.90;;;;;;5039068;28;20056;-82
2022/11/11 01:13:58;;;;;;;0.65;0.65;;;11.70;99.90;;;;;;5041244;28;20402;-80
2022/11/11 01:16:26;;;;;;;0.85;0.85;;;11.70;99.90;;;;;;5035498;28;20121;-81
2022/11/11 01:18:52;;;;;;;0.77;0.77;;;11.70;99.90;;;;;;5036715;28;20040;-82
2022/11/11 01:21:21;;;;;;;0.43;0.43;;;11.70;99.90;;;;;;5032103;28;20036;-81
2022/11/11 01:23:49;;;;;;;2.83;0.68;;;11.70;99.90;;;;;;5032352;28;20506;-81
2022/11/11 01:26:19;;;;;;;0.40;0.40;;;11.70;99.90;;;;;;5033940;28;20805;-81
2022/11/11 01:28:48;;;;;;;1.95;1.27;;;11.70;99.90;;;;;;5037565;28;20045;-82
2022/11/11 01:31:16;;;;;;;0.60;0.60;;;11.70;99.90;;;;;;5034625;28;20036;-82
2022/11/11 01:33:43;;;;;;;0.98;0.98;;;11.70;99.90;;;;;;5032764;28;20128;-81
2022/11/11 01:36:15;;;;;;;0.60;0.60;;;11.70;99.90;;;;;;5032964;28;20041;-81
2022/11/11 01:38:41;;;;;;;0.80;0.80;;;11.70;99.90;;;;;;5015725;28;20056;-82
2022/11/11 01:41:52;;;;;;;0.60;0.60;;;11.70;99.90;;;;;;5032077;28;20627;-82
2022/11/11 01:44:11;;;;;;;2.13;1.92;;;11.70;99.90;;;;;;5029252;28;20135;-82
2022/11/11 01:46:50;;;;;;;1.30;0.73;;;11.70;99.90;;;;;;5039761;28;20049;-82
2022/11/11 01:49:31;;;;;;;0.88;0.88;;;11.70;99.90;;;;;;5023092;28;20041;-82
2022/11/11 01:52:12;;;;;;;0.50;0.50;;;11.70;99.90;;;;;;5054837;28;20033;-82
2022/11/11 01:54:46;;;;;;;1.00;1.00;;;11.70;99.90;;;;;;5038724;28;20037;-81
2022/11/11 01:57:32;;;;;;;2.45;1.23;;;11.70;99.90;;;;;;5023646;28;20163;-81
2022/11/11 02:00:04;;;;;;;1.10;1.05;;;11.70;99.90;;;;;;5040711;28;20056;-81
2022/11/11 02:03:00;;;;;;;1.80;1.65;;;11.70;99.90;;;;;;5025607;28;20048;-81
2022/11/11 02:05:42;;;;;;;0.60;0.60;;;11.70;99.90;;;;;;5046740;28;20187;-81
2022/11/11 02:08:14;;;;;;;0.80;0.80;;;11.70;99.90;;;;;;5030513;28;20497;-81
2022/11/11 02:10:44;;;;;;;2.47;1.13;;;11.70;99.90;;;;;;5028917;28;20838;-82
2022/11/11 02:15:58;;;;;;;0.70;0.70;;;11.70;99.90;;;;;;5044459;28;20214;-81
2022/11/11 02:18:24;;;;;;;0.40;0.40;;;11.70;99.90;;;;;;5042941;28;20543;-81
2022/11/11 02:20:51;;;;;;;2.08;1.98;;;11.70;99.90;;;;;;5042924;28;20091;-81
2022/11/11 02:23:35;;;;;;;0.82;0.82;;;11.70;99.90;;;;;;5045479;28;20040;-81
2022/11/11 02:26:03;;;;;;;0.43;0.43;;;11.70;99.90;;;;;;5050732;28;20037;-81
2022/11/11 02:28:32;;;;;;;1.65;1.55;;;11.70;99.90;;;;;;5050287;28;20045;-80
2022/11/11 02:30:58;;;;;;;0.65;0.65;;;11.70;99.90;;;;;;5068448;28;20383;-80
2022/11/11 02:33:23;;;;;;;0.93;0.90;;;11.70;99.90;;;;;;5046332;28;20060;-81
2022/11/11 02:35:55;;;;;;;2.03;1.92;;;11.70;99.90;;;;;;5049459;28;20049;-82
2022/11/11 02:38:22;;;;;;;1.08;0.90;;;11.70;99.90;;;;;;5045016;28;20033;-81
2022/11/11 02:43:33;;;;;;;0.60;0.60;;;11.70;99.90;;;;;;5046154;28;20501;-81
2022/11/11 02:46:01;;;;;;;1.08;1.00;;;11.70;99.90;;;;;;5027247;28;20052;-82
2022/11/11 02:48:27;;;;;;;0.60;0.60;;;11.60;99.90;;;;;;5045252;28;20041;-80
2022/11/11 02:50:57;;;;;;;5.15;1.42;;;11.60;99.90;;;;;;5047229;28;20033;-81
2022/11/11 02:53:23;;;;;;;0.82;0.82;;;11.60;99.90;;;;;;5044424;28;20554;-81
2022/11/11 02:55:49;;;;;;;1.55;0.77;;;11.60;99.90;;;;;;5043421;28;20074;-81
2022/11/11 02:58:16;;;;;;;0.63;0.40;;;11.60;99.90;;;;;;5042820;28;20060;-81
2022/11/11 03:00:41;;;;;;;2.15;1.27;;;11.60;99.90;;;;;;5044379;28;20045;-81
2022/11/11 03:03:08;;;;;;;1.20;1.15;;;11.60;99.90;;;;;;5025912;28;20094;-80
2022/11/11 03:05:34;;;;;;;0.52;0.52;;;11.60;99.90;;;;;;5042336;28;20106;-81
2022/11/11 03:08:00;;;;;;;0.50;0.50;;;11.50;99.90;;;;;;5040988;28;20482;-81
2022/11/11 03:10:27;;;;;;;0.50;0.50;;;11.50;99.90;;;;;;5023344;28;20045;-82
2022/11/11 03:12:53;;;;;;;1.73;1.63;;;11.40;99.90;;;;;;5043240;28;20498;-82
2022/11/11 03:15:19;;;;;;;0.98;0.98;;;11.40;99.90;;;;;;5046440;28;20045;-82
2022/11/11 03:17:45;;;;;;;1.40;1.40;;;11.40;99.90;;;;;;5024974;28;20044;-82
2022/11/11 03:23:10;;;;;;;2.47;2.35;;;11.30;99.90;;;;;;5041762;28;20047;-82
2022/11/11 03:25:44;;;;;;;0.40;0.40;;;11.30;99.90;;;;;;5041350;28;20107;-82
2022/11/11 03:28:13;;;;;;;1.52;1.42;;;11.30;99.90;;;;;;5041550;28;20079;-81
2022/11/11 03:30:40;;;;;;;0.47;0.47;;;11.30;99.90;;;;;;5024281;28;20123;-82
2022/11/11 03:33:06;;;;;;;0.43;0.43;;;11.20;99.90;;;;;;5039739;28;20194;-82
2022/11/11 03:35:33;;;;;;;3.72;1.23;;;11.20;99.90;;;;;;5024717;28;20037;-81
2022/11/11 03:38:14;;;;;;;1.35;0.88;;;11.20;99.90;;;;;;5041321;28;20049;-81
2022/11/11 03:40:43;;;;;;;0.98;0.93;;;11.20;99.90;;;;;;5027317;28;20632;-82
2022/11/11 03:43:10;;;;;;;4.07;1.70;;;11.10;99.90;;;;;;5025667;28;20478;-81
2022/11/11 03:45:36;;;;;;;0.82;0.60;;;11.20;99.90;;;;;;5041665;28;20076;-82
2022/11/11 03:48:02;;;;;;;1.35;1.25;;;11.20;99.90;;;;;;5040310;28;20076;-82
2022/11/11 03:50:27;;;;;;;2.15;1.70;;;11.10;99.90;;;;;;5027115;28;20040;-81
2022/11/11 03:52:53;;;;;;;0.70;0.70;;;11.10;99.90;;;;;;5036500;28;20065;-81
2022/11/11 03:55:20;;;;;;;0.85;0.85;;;11.10;99.90;;;;;;5043224;28;20486;-81
2022/11/11 03:57:46;;;;;;;1.42;1.33;;;11.10;99.90;;;;;;4981758;28;1095123;-82
2022/11/11 04:00:20;;;;;;;1.25;1.15;;;11.00;99.90;;;;;;5041456;28;20075;-82
2022/11/11 04:11:23;;;;;;;1.23;1.13;;;11.00;99.90;;;;;;5025008;28;20044;-80
2022/11/11 04:16:33;;;;;;;0.98;0.98;;;10.90;99.90;;;;;;5047283;28;19942;-81
2022/11/11 04:21:43;;;;;;;0.60;0.60;;;10.90;99.90;;;;;;5036804;28;20083;-81
2022/11/11 04:27:05;;;;;;;1.38;1.27;;;10.90;99.90;;;;;;5042499;28;20084;-81
2022/11/11 04:29:31;;;;;;;0.63;0.63;;;11.00;99.90;;;;;;5041596;28;20041;-81
2022/11/11 04:35:01;;;;;;;0.60;0.60;;;11.00;99.90;;;;;;5037862;28;20084;-81
2022/11/11 04:37:29;;;;;;;1.08;1.05;;;11.00;99.90;;;;;;5040976;28;20048;-81
2022/11/11 04:42:39;;;;;;;2.47;1.65;;;10.90;99.90;;;;;;5039038;28;20112;-82
2022/11/11 04:48:01;;;;;;;0.80;0.80;;;11.00;99.90;;;;;;5040875;28;20111;-80
2022/11/11 04:50:29;;;;;;;0.77;0.77;;;11.00;99.90;;;;;;5039859;28;20072;-80
2022/11/11 04:52:55;;;;;;;1.23;1.20;;;11.00;99.90;;;;;;5040389;28;20313;-81
2022/11/11 04:58:09;;;;;;;4.28;2.83;;;11.00;99.90;;;;;;5027895;28;20057;-82
2022/11/11 05:00:35;;;;;;;0.45;0.45;;;11.10;99.90;;;;;;5039593;28;20048;-81
2022/11/11 05:03:17;;;;;;;1.45;0.68;;;10.90;99.90;;;;;;5042318;28;20174;-80
2022/11/11 05:08:55;;;;;;;1.40;1.30;;;10.90;99.90;;;;;;4999614;28;20351;-82
2022/11/11 05:11:26;;;;;;;2.88;2.33;;;10.90;99.90;;;;;;5025298;28;20041;-82
2022/11/11 05:22:37;;;;;;;1.98;0.98;;;10.80;99.90;;;;;;5040634;28;20463;-81
2022/11/11 05:27:48;;;;;;;1.92;1.83;;;10.80;99.90;;;;;;5036196;28;21704;-81
2022/11/11 05:30:15;;;;;;;0.70;0.70;;;10.80;99.90;;;;;;5022879;28;20040;-80
2022/11/11 05:32:41;;;;;;;2.92;2.72;;;10.80;99.90;;;;;;5045153;28;20064;-79
2022/11/11 05:35:08;;;;;;;1.65;1.55;;;10.70;99.90;;;;;;5036693;28;20195;-80
2022/11/11 05:37:34;;;;;;;1.98;1.88;;;10.80;99.90;;;;;;5042609;28;20056;-81
2022/11/11 05:40:00;;;;;;;2.13;1.15;;;10.80;99.90;;;;;;5038432;28;20044;-81
2022/11/11 05:42:25;;;;;;;2.35;2.15;;;10.80;99.90;;;;;;5039451;28;20167;-82
2022/11/11 05:44:51;;;;;;;2.08;1.73;;;10.80;99.90;;;;;;5039246;28;20450;-82
2022/11/11 05:47:17;;;;;;;1.83;1.73;;;10.80;99.90;;;;;;5038908;28;20414;-83
2022/11/11 05:49:46;;;;;;;2.95;2.75;;;10.80;99.90;;;;;;5023471;28;20061;-82
2022/11/11 05:52:13;;;;;;;1.02;0.93;;;10.80;99.90;;;;;;5041419;28;20080;-81
2022/11/11 05:54:45;;;;;;;1.92;1.83;;;10.80;99.90;;;;;;5026840;28;20039;-82
2022/11/11 05:57:10;;;;;;;;;;;10.70;99.90;;;;;;5009537;28;20045;-82
2022/11/11 05:59:36;;;;;;;2.33;1.77;;;10.60;99.90;;;;;;5040127;28;19975;-80
2022/11/11 06:02:02;;;;;;;2.75;2.28;;;10.50;99.90;;;;;;5038876;28;20060;-81
2022/11/11 06:04:28;;;;;;;;;;;10.50;99.90;;;;;;5025657;28;20501;-81
2022/11/11 06:06:54;;;;;;;0.50;0.50;;;10.40;99.90;;;;;;5040450;28;19925;-82
2022/11/11 06:09:20;;;;;;;1.45;1.40;;;10.30;99.90;;;;;;5040817;28;20106;-81
2022/11/11 06:11:46;;;;;;;;;;;10.30;99.90;;;;;;5039357;28;20048;-81
2022/11/11 06:14:11;;;;;;;2.47;2.38;;;10.30;99.90;;;;;;5038762;28;19924;-81
2022/11/11 06:16:37;;;;;;;0.88;0.88;;;10.30;99.90;;;;;;5038531;28;20128;-82
2022/11/11 06:19:03;;;;;;;0.98;0.88;;;10.30;99.90;;;;;;5058184;28;20041;-81
2022/11/11 06:21:55;;;;;;;2.15;2.05;;;10.30;99.90;;;;;;5002263;28;20037;-81
2022/11/11 06:24:17;;;;;;;0.75;0.75;;;10.40;99.90;;;;;;5028944;28;20080;-81
2022/11/11 06:26:42;;;;;;;0.93;0.80;;;10.40;99.90;;;;;;5023277;28;20041;-81
2022/11/11 06:29:08;;;;;;;2.95;1.50;;;10.40;99.90;;;;;;5039482;28;20041;-82
2022/11/11 06:31:33;;;;;;;1.13;1.05;;;10.50;99.90;;;;;;4996578;28;20040;-83
2022/11/11 06:33:59;;;;;;;1.30;1.23;;;10.60;99.90;;;;;;5040056;28;20052;-82
2022/11/11 06:36:25;;;;;;;1.00;1.00;;;10.70;99.90;;;;;;5038999;28;20041;-81
2022/11/11 06:38:51;;;;;;;1.83;1.73;;;10.80;99.90;;;;;;5036630;28;21395;-82
2022/11/11 06:41:16;;;;;;;2.85;0.88;;;10.80;99.90;;;;;;5033261;28;20067;-82
2022/11/11 06:43:42;;;;;;;0.68;0.68;;;10.90;99.90;;;;;;5042067;28;20049;-81
2022/11/11 06:46:19;;;;;;;0.70;0.68;;;10.90;99.90;;;;;;5044277;28;20037;-83
2022/11/11 06:48:45;;;;;;;0.73;0.73;;;11.00;99.90;;;;;;5044025;28;20059;-83
2022/11/11 06:51:13;;;;;;;5.72;1.45;;;11.00;99.90;;;;;;5044346;28;20049;-81
2022/11/11 06:53:39;;;;;;;0.77;0.77;;;11.00;99.90;;;;;;5048771;28;20048;-82
2022/11/11 06:56:06;;;;;;;1.25;1.20;;;11.10;99.90;;;;;;5025490;28;20449;-82
2022/11/11 06:58:32;;;;;;;1.75;1.65;;;11.10;99.90;;;;;;5057457;28;20095;-82
2022/11/11 07:00:58;;;;;;;1.70;1.60;;;11.10;99.90;;;;;;5045846;28;20123;-81
2022/11/11 07:03:24;;;;;;;4.35;1.42;;;11.10;99.90;;;;;;5029416;28;20132;-82
2022/11/11 07:05:50;;;;;;;1.75;0.82;;;11.10;99.90;;;;;;5022039;28;20441;-82
2022/11/11 07:08:17;;;;;;;1.83;1.73;;;11.10;99.90;;;;;;5045903;28;21508;-82
2022/11/11 07:10:45;;;;;;;1.13;1.00;;;11.10;99.90;;;;;;5044849;28;20049;-82
2022/11/11 07:13:12;;;;;;;2.13;1.48;;;11.10;99.90;;;;;;5027529;28;20049;-82
2022/11/11 07:15:38;;;;;;;0.55;0.55;;;11.10;99.90;;;;;;5044761;28;20072;-82
2022/11/11 07:18:04;;;;;;;1.20;1.10;;;11.10;99.90;;;;;;5043437;28;20037;-82
2022/11/11 07:20:30;;;;;;;0.52;0.52;;;11.10;99.90;;;;;;5056321;28;20052;-82
2022/11/11 07:22:55;;;;;;;1.92;1.83;;;11.10;99.90;;;;;;5040839;28;20131;-82
2022/11/11 07:25:21;;;;;;;1.33;1.33;;;11.10;99.90;;;;;;5042644;28;20037;-82
2022/11/11 07:27:47;;;;;;;1.38;1.27;;;11.10;99.90;;;;;;5042754;28;20102;-82
2022/11/11 07:30:13;;;;;;;2.33;1.48;;;11.10;99.90;;;;;;5042050;28;20127;-82
2022/11/11 07:32:50;;;;;;;1.10;1.10;;;11.10;99.90;;;;;;5039625;28;20781;-82
2022/11/11 07:35:16;;;;;;;;;;;11.10;99.90;;;;;;5024837;28;20077;-82
2022/11/11 07:37:43;;;;;;;2.45;1.90;;;11.10;99.90;;;;;;5041798;28;19979;-82
2022/11/11 07:40:10;;;;;;;3.22;2.45;;;11.10;99.90;;;;;;5025766;28;20098;-82
2022/11/11 07:42:37;;;;;;;4.22;1.73;;;11.10;99.90;;;;;;5039998;28;20045;-81
2022/11/11 07:45:04;;;;;;;1.23;1.23;;;11.10;99.90;;;;;;5041439;28;20045;-81
2022/11/11 07:47:30;;;;;;;1.27;1.17;;;11.10;99.90;;;;;;5042812;28;20124;-81
2022/11/11 07:49:55;;;;;;;3.72;3.40;;;11.10;99.90;;;;;;5033856;28;20124;-81
2022/11/11 07:52:22;;;;;;;1.13;1.08;;;11.10;99.90;;;;;;5048574;28;20072;-83
2022/11/11 07:54:49;;;;;;;2.58;2.38;;;11.20;99.90;;;;;;5042249;28;21248;-81
2022/11/11 07:57:16;;;;;;;1.60;1.50;;;11.20;99.90;;;;;;5042887;28;20099;-82
2022/11/11 07:59:41;;;;;;;1.88;1.77;;;11.20;99.90;;;;;;5042873;28;20056;-83
2022/11/11 08:02:12;;;;;;;0.77;0.77;;;11.20;99.90;;;;;;5040052;28;21510;-82
2022/11/11 08:04:38;;;;;;;0.98;0.98;;;11.20;99.90;;;;;;5045638;28;20386;-81
2022/11/11 08:07:03;;;;;;;3.05;1.27;;;11.20;99.90;;;;;;5025606;28;20040;-81
2022/11/11 08:09:29;;;;;;;1.67;1.58;;;11.20;99.90;;;;;;5041762;28;20113;-81
2022/11/11 08:14:41;;;;;;;2.55;0.85;;;11.30;99.90;;;;;;5043325;28;20105;-81
2022/11/11 08:17:06;;;;;;;3.25;2.03;;;11.30;99.90;;;;;;5039277;28;20458;-82
2022/11/11 08:19:32;;;;;;;1.30;1.20;;;11.30;99.90;;;;;;5044731;28;20102;-82
2022/11/11 08:21:57;;;;;;;1.27;0.98;;;11.30;99.90;;;;;;5043793;28;20442;-82
2022/11/11 08:24:23;;;;;;;4.20;2.00;;;11.30;99.90;;;;;;5027764;28;20041;-82
2022/11/11 08:26:49;;;;;;;1.25;1.10;;;11.30;99.90;;;;;;5041572;28;20095;-81
2022/11/11 08:29:15;;;;;;;0.55;0.55;;;11.30;99.90;;;;;;5043777;28;20406;-82
2022/11/11 08:31:41;;;;;;;1.55;0.85;;;11.30;99.90;;;;;;5043389;28;20638;-82
2022/11/11 08:34:07;;;;;;;;;;;11.30;99.90;;;;;;5039823;28;20044;-82
2022/11/11 08:36:33;;;;;;;2.45;1.40;;;11.30;99.90;;;;;;5043231;28;19921;-81
2022/11/11 08:38:59;;;;;;;2.13;1.75;;;11.30;99.90;;;;;;5043256;28;20408;-81
2022/11/11 08:41:24;;;;;;;4.65;2.22;;;11.30;99.90;;;;;;5041416;28;20471;-81
2022/11/11 08:43:52;;;;;;;1.13;0.80;;;11.30;99.90;;;;;;5023324;28;20139;-82
2022/11/11 08:46:18;;;;;;;0.95;0.95;;;11.30;99.90;;;;;;5039551;28;20410;-82
2022/11/11 08:48:43;;;;;;;2.72;1.02;;;11.30;99.90;;;;;;5018146;28;20075;-81
2022/11/11 08:51:15;;;;;;;0.80;0.80;;;11.30;99.90;;;;;;5019074;28;20399;-81
2022/11/11 08:53:41;;;;;;;;;;;11.30;99.90;;;;;;5036249;28;20138;-82
2022/11/11 08:56:07;;;;;;;3.33;3.08;;;11.30;99.90;;;;;;5035544;28;19968;-81
2022/11/11 08:58:33;;;;;;;;;;;11.30;99.90;;;;;;5036065;28;20065;-82
2022/11/11 09:01:00;;;;;;;2.40;1.17;;;11.30;99.90;;;;;;5036503;28;20053;-82
2022/11/11 09:03:26;;;;;;;0.60;0.60;;;11.30;99.90;;;;;;5032533;28;20041;-81
2022/11/11 09:05:52;;;;;;;1.05;1.05;;;11.30;99.90;;;;;;5034174;28;20037;-82
2022/11/11 09:08:18;;;;;;;7.63;2.72;;;11.30;99.90;;;;;;5033786;28;20041;-82
2022/11/11 09:10:44;;;;;;;6.55;1.17;;;11.30;99.90;;;;;;5034903;28;20080;-80
2022/11/11 09:13:09;;;;;;;2.13;2.03;;;11.30;99.90;;;;;;5036654;28;20048;-81
2022/11/11 09:15:35;;;;;;;2.08;1.40;;;11.30;99.90;;;;;;5054144;28;20470;-82
2022/11/11 09:18:02;;;;;;;7.65;2.83;;;11.30;99.90;;;;;;5017433;28;20051;-82
2022/11/11 09:20:28;;;;;;;0.80;0.70;;;11.30;99.90;;;;;;5028526;28;20037;-82
2022/11/11 09:22:54;;;;;;;0.90;0.90;;;11.30;99.90;;;;;;5038451;28;20541;-82
2022/11/11 09:25:22;;;;;;;0.65;0.65;;;11.30;99.90;;;;;;5022566;28;20041;-82
2022/11/11 09:27:58;;;;;;;1.42;1.38;;;11.30;99.90;;;;;;5021545;28;20074;-82
2022/11/11 09:30:25;;;;;;;1.55;1.38;;;11.30;99.90;;;;;;5042843;28;20033;-82
2022/11/11 09:32:51;;;;;;;1.10;1.10;;;11.40;99.90;;;;;;5024209;28;20094;-82
2022/11/11 09:35:17;;;;;;;4.50;2.75;;;11.40;99.90;;;;;;5040866;28;20048;-82
2022/11/11 09:37:52;;;;;;;1.10;1.10;;;11.40;99.90;;;;;;5037332;28;20041;-82
2022/11/11 09:40:23;;;;;;;1.00;1.00;;;11.30;99.90;;;;;;5031023;28;20040;-82
2022/11/11 09:43:15;;;;;;;1.02;0.93;;;11.40;99.90;;;;;;5017686;28;20489;-82
2022/11/11 09:46:09;;;;;;;1.27;1.23;;;11.30;99.90;;;;;;5034054;28;20036;-82
2022/11/11 09:48:50;;;;;;;1.80;1.70;;;11.30;99.90;;;;;;5036902;28;20045;-82
2022/11/11 09:51:41;;;;;;;1.25;1.15;;;11.30;99.90;;;;;;5035430;28;20103;-82
2022/11/11 09:54:14;;;;;;;6.65;2.45;;;11.30;99.90;;;;;;5034665;28;21606;-82
2022/11/11 09:56:40;;;;;;;0.80;0.63;;;11.30;99.90;;;;;;5033674;28;20068;-82
2022/11/11 09:59:10;;;;;;;0.57;0.57;;;11.20;99.90;;;;;;5013282;28;20175;-82
2022/11/11 10:01:45;;;;;;;0.50;0.50;;;11.20;99.90;;;;;;5034354;28;20044;-82
2022/11/11 10:04:23;;;;;;;0.75;0.75;;;11.20;99.90;;;;;;5031263;28;20059;-83
2022/11/11 10:06:52;;;;;;;1.15;1.05;;;11.20;99.90;;;;;;5032237;28;20048;-82
2022/11/11 10:09:30;;;;;;;3.45;2.05;;;11.20;99.90;;;;;;5030974;28;20041;-81
2022/11/11 10:12:14;;;;;;;1.60;1.38;;;11.10;99.90;;;;;;5035182;28;20040;-82
2022/11/11 10:14:45;;;;;;;0.73;0.73;;;11.10;99.90;;;;;;5034483;28;20053;-82
2022/11/11 10:17:33;;;;;;;1.02;1.02;;;11.20;99.90;;;;;;5033395;28;20051;-82
2022/11/11 10:20:07;;;;;;;1.40;1.30;;;11.10;99.90;;;;;;5036966;28;20571;-82
2022/11/11 10:22:35;;;;;;;0.85;0.85;;;11.10;99.90;;;;;;5034627;28;20076;-82
2022/11/11 10:25:23;;;;;;;4.80;1.73;;;11.10;99.90;;;;;;5032308;28;20045;-82
2022/11/11 10:27:53;;;;;;;2.60;2.40;;;11.10;99.90;;;;;;5026274;28;20057;-82
2022/11/11 10:30:28;;;;;;;1.50;1.40;;;11.20;99.90;;;;;;5043737;28;20037;-81
2022/11/11 10:33:17;;;;;;;0.45;0.43;;;11.20;99.90;;;;;;5046339;28;20055;-82
2022/11/11 10:35:44;;;;;;;0.93;0.93;;;11.20;99.90;;;;;;5036799;28;20059;-82
2022/11/11 10:38:09;;;;;;;0.63;0.63;;;11.20;99.90;;;;;;5037090;28;20036;-82
2022/11/11 10:40:57;;;;;;;0.70;0.70;;;11.30;99.90;;;;;;5036871;28;20041;-81
2022/11/11 10:43:25;;;;;;;1.70;1.60;;;11.30;99.90;;;;;;5038984;28;20116;-81
2022/11/11 10:45:54;;;;;;;0.70;0.65;;;11.30;99.90;;;;;;5039524;28;20147;-81
2022/11/11 10:48:47;;;;;;;1.92;1.83;;;11.30;99.90;;;;;;5039878;28;20110;-81
2022/11/11 10:51:15;;;;;;;0.47;0.47;;;11.30;99.90;;;;;;5037236;28;20037;-82
2022/11/11 10:54:09;;;;;;;22.77;1.73;;;11.30;99.90;;;;;;5036337;28;20387;-82
2022/11/11 10:56:54;;;;;;;1.85;1.75;;;11.30;99.90;;;;;;5017783;28;20068;-83
2022/11/11 10:59:25;;;;;;;1.02;0.95;;;11.30;99.90;;;;;;5013333;28;20409;-82
2022/11/11 11:02:03;;;;;;;2.47;0.77;;;11.30;99.90;;;;;;5035264;28;20056;-82
2022/11/11 11:04:43;;;;;;;0.85;0.85;;;11.30;99.90;;;;;;5038587;28;20049;-82
2022/11/11 11:07:12;;;;;;;4.28;3.03;;;11.40;99.90;;;;;;5023466;28;20045;-82
2022/11/11 11:09:59;;;;;;;0.45;0.45;;;11.50;99.90;;;;;;5038433;28;20126;-82
2022/11/11 11:12:28;;;;;;;1.20;1.10;;;11.50;99.90;;;;;;5039556;28;20079;-82
2022/11/11 11:15:00;;;;;;;1.13;1.02;;;11.50;99.90;;;;;;5023366;28;20084;-82
2022/11/11 11:17:59;;;;;;;13.63;2.65;;;11.50;99.90;;;;;;5033766;28;20630;-83
2022/11/11 11:20:25;;;;;;;1.17;1.08;;;11.60;99.90;;;;;;5004166;28;20080;-82
2022/11/11 11:22:58;;;;;;;0.57;0.57;;;11.50;99.90;;;;;;5035474;28;20277;-82
2022/11/11 11:25:28;;;;;;;0.63;0.63;;;11.50;99.90;;;;;;5034346;28;20462;-82
2022/11/11 11:28:08;;;;;;;0.63;0.47;;;11.60;99.90;;;;;;5021632;28;20048;-83
2022/11/11 11:30:34;;;;;;;1.05;0.60;;;11.60;99.90;;;;;;5034253;28;20040;-82
2022/11/11 11:33:06;;;;;;;1.23;1.13;;;11.60;99.90;;;;;;5020280;28;20048;-82
2022/11/11 11:35:43;;;;;;;1.00;0.88;;;11.60;99.90;;;;;;5037432;28;20130;-82
2022/11/11 11:38:10;;;;;;;2.33;2.13;;;11.60;99.90;;;;;;5034580;28;20103;-82
2022/11/11 11:40:46;;;;;;;1.67;1.58;;;11.60;99.90;;;;;;5034585;28;20375;-83
2022/11/11 11:43:34;;;;;;;2.15;1.88;;;11.70;99.90;;;;;;5035555;28;20041;-82
2022/11/11 11:46:02;;;;;;;0.85;0.85;;;11.80;99.90;;;;;;5056877;28;20166;-83
2022/11/11 11:48:34;;;;;;;0.50;0.40;;;11.70;99.90;;;;;;5039543;28;20045;-81
2022/11/11 11:51:12;;;;;;;1.05;0.98;;;11.70;99.90;;;;;;5038772;28;20036;-81
2022/11/11 11:54:06;;;;;;;0.73;0.73;;;11.70;99.90;;;;;;5024185;28;20060;-82
2022/11/11 11:56:43;;;;;;;0.77;0.77;;;12.10;99.90;;;;;;5038960;28;20123;-83
2022/11/11 11:59:31;;;;;;;1.80;1.40;;;11.70;99.90;;;;;;5021629;28;20057;-82
2022/11/11 12:02:46;;;;;;;0.70;0.70;;;11.70;99.90;;;;;;5041820;28;20095;-83
2022/11/11 12:05:32;;;;;;;1.05;0.88;;;11.80;99.90;;;;;;4965712;28;20050;-82
2022/11/11 12:08:31;;;;;;;1.08;1.08;;;11.80;99.90;;;;;;5031890;28;20048;-83
2022/11/11 12:11:07;;;;;;;3.03;1.23;;;11.80;99.90;;;;;;5033652;28;20040;-82
2022/11/11 12:13:55;;;;;;;1.63;1.52;;;11.80;99.90;;;;;;5039276;28;20045;-83
2022/11/11 12:16:20;;;;;;;;;;;11.80;99.90;;;;;;5041323;28;20832;-82
2022/11/11 12:19:12;;;;;;;0.50;0.50;;;11.80;99.90;;;;;;5024555;28;19964;-82
2022/11/11 12:22:02;;;;;;;2.78;0.98;;;11.70;99.90;;;;;;5034659;28;20431;-82
2022/11/11 12:24:34;;;;;;;1.85;1.45;;;11.70;99.90;;;;;;5039117;28;20072;-81
2022/11/11 12:27:16;;;;;;;0.73;0.70;;;11.70;99.90;;;;;;5035910;28;20065;-82
2022/11/11 12:29:50;;;;;;;1.10;0.70;;;11.70;99.90;;;;;;5038122;28;21372;-81
2022/11/11 12:32:47;;;;;;;1.92;1.83;;;11.70;99.90;;;;;;5036479;28;20041;-83
2022/11/11 12:35:38;;;;;;;1.42;0.90;;;11.70;99.90;;;;;;5037682;28;20581;-82
2022/11/11 12:38:26;;;;;;;1.52;1.42;;;11.70;99.90;;;;;;5019216;28;20083;-81
2022/11/11 12:41:22;;;;;;;0.50;0.50;;;11.70;99.90;;;;;;5036392;28;20045;-82
2022/11/11 12:44:05;;;;;;;0.70;0.70;;;11.70;99.90;;;;;;5033778;28;20068;-82
2022/11/11 12:46:56;;;;;;;1.85;1.70;;;11.70;99.90;;;;;;5032332;28;20128;-81
2022/11/11 12:49:40;;;;;;;0.85;0.85;;;11.70;99.90;;;;;;5031992;28;20052;-82
2022/11/11 12:52:37;;;;;;;1.35;1.00;;;11.70;99.90;;;;;;5023047;28;20041;-82
2022/11/11 12:55:22;;;;;;;0.55;0.55;;;11.60;99.90;;;;;;5039556;28;20065;-82
2022/11/11 12:58:08;;;;;;;1.05;1.05;;;11.50;99.90;;;;;;5044238;28;20437;-82
2022/11/11 13:00:43;;;;;;;1.38;1.25;;;11.60;99.90;;;;;;5044167;28;20056;-81
2022/11/11 13:03:40;;;;;;;0.60;0.60;;;11.60;99.90;;;;;;5040180;28;20076;-83
2022/11/11 13:06:35;;;;;;;1.23;1.23;;;11.60;99.90;;;;;;5020428;28;20044;-82
2022/11/11 13:09:31;;;;;;;0.98;0.95;;;11.60;99.90;;;;;;5039606;28;20106;-82
2022/11/11 13:12:18;;;;;;;2.15;1.95;;;11.60;99.90;;;;;;5038425;28;20041;-82
2022/11/11 13:15:09;;;;;;;0.80;0.68;;;11.60;99.90;;;;;;5039734;28;20103;-81
2022/11/11 13:17:36;;;;;;;1.17;1.10;;;11.50;99.90;;;;;;5037062;28;20039;-82
2022/11/11 13:20:34;;;;;;;1.23;1.13;;;11.50;99.90;;;;;;5040205;28;20913;-83
2022/11/11 13:23:00;;;;;;;1.27;1.08;;;11.50;99.90;;;;;;5038049;28;20120;-81
2022/11/11 13:25:31;;;;;;;1.90;1.67;;;11.50;99.90;;;;;;5044260;28;20120;-82
2022/11/11 13:28:18;;;;;;;2.65;1.10;;;11.40;99.90;;;;;;5038689;28;20037;-82
2022/11/11 13:31:05;;;;;;;1.63;1.52;;;11.50;99.90;;;;;;5039488;28;20379;-83
2022/11/11 13:34:02;;;;;;;1.10;1.00;;;11.50;99.90;;;;;;5054806;28;20080;-82
2022/11/11 13:36:33;;;;;;;1.13;0.63;;;11.50;99.90;;;;;;5036453;28;20049;-82
2022/11/11 13:39:02;;;;;;;4.13;3.83;;;11.40;99.90;;;;;;5037501;28;20056;-82
2022/11/11 13:41:52;;;;;;;0.68;0.68;;;11.40;99.90;;;;;;5037396;28;20140;-82
2022/11/11 13:44:33;;;;;;;1.75;1.63;;;11.40;99.90;;;;;;5039537;28;20746;-82
2022/11/11 13:47:03;;;;;;;0.40;0.40;;;11.30;99.90;;;;;;5040279;28;20053;-82
2022/11/11 13:49:32;;;;;;;1.55;1.45;;;11.30;99.90;;;;;;5022885;28;20071;-82
2022/11/11 13:52:00;;;;;;;0.90;0.90;;;11.30;99.90;;;;;;5038730;28;20478;-82
2022/11/11 13:54:27;;;;;;;0.50;0.50;;;11.30;99.90;;;;;;5041287;28;20036;-82
2022/11/11 13:57:02;;;;;;;1.08;1.02;;;11.30;99.90;;;;;;5046728;28;20534;-82
2022/11/11 13:59:32;;;;;;;2.40;2.20;;;11.30;99.90;;;;;;5043842;28;20060;-82
2022/11/11 14:02:34;;;;;;;2.20;2.08;;;11.30;99.90;;;;;;5041112;28;20045;-82
2022/11/11 14:05:07;;;;;;;0.55;0.55;;;11.30;99.90;;;;;;4970383;28;20069;-82
2022/11/11 14:07:53;;;;;;;1.20;0.82;;;11.30;99.90;;;;;;5040139;28;20180;-82
2022/11/11 14:10:18;;;;;;;0.88;0.50;;;11.20;99.90;;;;;;5013332;28;20037;-82
2022/11/11 14:12:46;;;;;;;0.60;0.60;;;11.30;99.90;;;;;;5032706;28;20041;-82
2022/11/11 14:15:30;;;;;;;0.75;0.75;;;11.30;99.90;;;;;;5046357;28;20528;-83
2022/11/11 14:17:56;;;;;;;0.40;0.40;;;11.30;99.90;;;;;;5065962;28;20043;-81
2022/11/11 14:20:40;;;;;;;0.73;0.73;;;11.30;99.90;;;;;;5045866;28;20486;-82